sensor_id;sensor_type;location;lat;lon;timestamp;P1;durP1;ratioP1;P2;durP2;ratioP2
59659;SDS011;45534;52.690;6.268;2023-07-09T11:53:49;10.23;;;7.13;;
59659;SDS011;45534;52.690;6.268;2023-07-09T11:56:18;21.88;;;8.73;;
59659;SDS011;45534;52.690;6.268;2023-07-09T11:58:49;12.00;;;8.18;;
59659;SDS011;45534;52.690;6.268;2023-07-09T12:01:15;31.35;;;9.18;;
59659;SDS011;45534;52.690;6.268;2023-07-09T12:03:44;10.65;;;7.35;;
59659;SDS011;45534;52.690;6.268;2023-07-09T12:06:24;12.18;;;7.95;;
59659;SDS011;45534;52.690;6.268;2023-07-09T12:08:53;12.82;;;8.55;;
59659;SDS011;45534;52.690;6.268;2023-07-09T12:11:20;13.05;;;9.57;;
59659;SDS011;45534;52.690;6.268;2023-07-09T12:13:54;11.93;;;8.93;;
59659;SDS011;45534;52.690;6.268;2023-07-09T12:18:53;9.43;;;7.32;;
59659;SDS011;45534;52.690;6.268;2023-07-09T12:21:19;7.65;;;6.57;;
59659;SDS011;45534;52.690;6.268;2023-07-09T12:23:46;11.43;;;7.78;;
59659;SDS011;45534;52.690;6.268;2023-07-09T12:26:13;10.05;;;8.10;;
59659;SDS011;45534;52.690;6.268;2023-07-09T12:28:41;10.20;;;8.02;;
59659;SDS011;45534;52.690;6.268;2023-07-09T12:31:11;10.95;;;8.27;;
59659;SDS011;45534;52.690;6.268;2023-07-09T12:33:45;11.32;;;7.78;;
59659;SDS011;45534;52.690;6.268;2023-07-09T12:36:16;11.07;;;7.43;;
59659;SDS011;45534;52.690;6.268;2023-07-09T12:38:44;9.80;;;7.85;;
59659;SDS011;45534;52.690;6.268;2023-07-09T12:41:17;15.40;;;7.60;;
59659;SDS011;45534;52.690;6.268;2023-07-09T12:44:04;13.50;;;7.93;;
59659;SDS011;45534;52.690;6.268;2023-07-09T12:46:31;8.50;;;6.75;;
59659;SDS011;45534;52.690;6.268;2023-07-09T12:48:56;12.80;;;6.57;;
59659;SDS011;45534;52.690;6.268;2023-07-09T12:51:24;11.02;;;7.55;;
59659;SDS011;45534;52.690;6.268;2023-07-09T12:54:13;16.50;;;9.02;;
59659;SDS011;45534;52.690;6.268;2023-07-09T12:56:41;10.48;;;7.00;;
59659;SDS011;45534;52.690;6.268;2023-07-09T12:59:17;9.65;;;7.03;;
59659;SDS011;45534;52.690;6.268;2023-07-09T13:01:55;11.70;;;9.13;;
59659;SDS011;45534;52.690;6.268;2023-07-09T13:04:30;7.82;;;6.55;;
59659;SDS011;45534;52.690;6.268;2023-07-09T13:06:58;13.02;;;7.03;;
59659;SDS011;45534;52.690;6.268;2023-07-09T13:09:25;10.40;;;7.13;;
59659;SDS011;45534;52.690;6.268;2023-07-09T13:11:52;9.45;;;6.65;;
59659;SDS011;45534;52.690;6.268;2023-07-09T13:14:24;8.07;;;5.95;;
59659;SDS011;45534;52.690;6.268;2023-07-09T13:17:02;12.25;;;7.22;;
59659;SDS011;45534;52.690;6.268;2023-07-09T13:19:29;10.52;;;6.80;;
59659;SDS011;45534;52.690;6.268;2023-07-09T13:21:55;10.30;;;7.18;;
59659;SDS011;45534;52.690;6.268;2023-07-09T13:24:24;10.43;;;7.68;;
59659;SDS011;45534;52.690;6.268;2023-07-09T13:26:53;9.30;;;7.20;;
59659;SDS011;45534;52.690;6.268;2023-07-09T13:29:19;10.63;;;7.63;;
59659;SDS011;45534;52.690;6.268;2023-07-09T13:31:45;10.63;;;6.18;;
59659;SDS011;45534;52.690;6.268;2023-07-09T13:34:23;10.18;;;7.43;;
59659;SDS011;45534;52.690;6.268;2023-07-09T13:36:50;9.80;;;7.28;;
59659;SDS011;45534;52.690;6.268;2023-07-09T13:39:19;10.00;;;7.38;;
59659;SDS011;45534;52.690;6.268;2023-07-09T13:41:46;11.55;;;8.00;;
59659;SDS011;45534;52.690;6.268;2023-07-09T13:44:21;9.55;;;6.97;;
59659;SDS011;45534;52.690;6.268;2023-07-09T13:46:50;10.57;;;6.70;;
59659;SDS011;45534;52.690;6.268;2023-07-09T13:49:20;10.45;;;7.10;;
59659;SDS011;45534;52.690;6.268;2023-07-09T13:51:48;8.73;;;7.05;;
59659;SDS011;45534;52.690;6.268;2023-07-09T13:54:19;13.95;;;7.90;;
59659;SDS011;45534;52.690;6.268;2023-07-09T13:56:47;10.80;;;7.57;;
59659;SDS011;45534;52.690;6.268;2023-07-09T13:59:19;10.60;;;6.57;;
59659;SDS011;45534;52.690;6.268;2023-07-09T14:01:47;8.75;;;6.32;;
59659;SDS011;45534;52.690;6.268;2023-07-09T14:04:15;10.43;;;5.70;;
59659;SDS011;45534;52.690;6.268;2023-07-09T14:06:42;8.75;;;5.72;;
59659;SDS011;45534;52.690;6.268;2023-07-09T14:09:09;10.15;;;6.50;;
59659;SDS011;45534;52.690;6.268;2023-07-09T14:11:40;8.65;;;6.22;;
59659;SDS011;45534;52.690;6.268;2023-07-09T14:14:22;10.38;;;6.30;;
59659;SDS011;45534;52.690;6.268;2023-07-09T14:16:57;10.80;;;6.45;;
59659;SDS011;45534;52.690;6.268;2023-07-09T14:19:24;7.97;;;6.38;;
59659;SDS011;45534;52.690;6.268;2023-07-09T14:21:51;11.43;;;7.45;;
59659;SDS011;45534;52.690;6.268;2023-07-09T14:26:49;12.30;;;6.65;;
59659;SDS011;45534;52.690;6.268;2023-07-09T14:29:15;10.43;;;6.53;;
59659;SDS011;45534;52.690;6.268;2023-07-09T14:31:42;17.67;;;7.05;;
59659;SDS011;45534;52.690;6.268;2023-07-09T14:34:30;10.57;;;7.05;;
59659;SDS011;45534;52.690;6.268;2023-07-09T14:36:55;16.10;;;6.57;;
59659;SDS011;45534;52.690;6.268;2023-07-09T14:39:22;10.63;;;6.43;;
59659;SDS011;45534;52.690;6.268;2023-07-09T14:41:49;11.23;;;5.35;;
59659;SDS011;45534;52.690;6.268;2023-07-09T14:44:27;10.27;;;6.10;;
59659;SDS011;45534;52.690;6.268;2023-07-09T14:46:55;11.93;;;7.23;;
59659;SDS011;45534;52.690;6.268;2023-07-09T14:49:25;18.50;;;7.30;;
59659;SDS011;45534;52.690;6.268;2023-07-09T14:51:52;12.13;;;7.60;;
59659;SDS011;45534;52.690;6.268;2023-07-09T14:54:25;14.45;;;8.52;;
59659;SDS011;45534;52.690;6.268;2023-07-09T14:56:53;13.82;;;7.20;;
59659;SDS011;45534;52.690;6.268;2023-07-09T14:59:20;15.45;;;7.38;;
59659;SDS011;45534;52.690;6.268;2023-07-09T15:01:46;8.35;;;6.05;;
59659;SDS011;45534;52.690;6.268;2023-07-09T15:06:50;11.23;;;7.45;;
59659;SDS011;45534;52.690;6.268;2023-07-09T15:09:21;16.90;;;7.43;;
59659;SDS011;45534;52.690;6.268;2023-07-09T15:11:48;11.88;;;6.70;;
59659;SDS011;45534;52.690;6.268;2023-07-09T15:14:17;10.05;;;5.90;;
59659;SDS011;45534;52.690;6.268;2023-07-09T15:16:42;11.70;;;7.68;;
59659;SDS011;45534;52.690;6.268;2023-07-09T15:19:11;13.48;;;8.18;;
59659;SDS011;45534;52.690;6.268;2023-07-09T15:21:41;11.98;;;8.30;;
59659;SDS011;45534;52.690;6.268;2023-07-09T15:24:19;10.60;;;6.78;;
59659;SDS011;45534;52.690;6.268;2023-07-09T15:26:48;14.05;;;7.15;;
59659;SDS011;45534;52.690;6.268;2023-07-09T15:29:17;12.40;;;7.35;;
59659;SDS011;45534;52.690;6.268;2023-07-09T15:31:43;11.00;;;6.55;;
59659;SDS011;45534;52.690;6.268;2023-07-09T15:34:09;13.95;;;7.68;;
59659;SDS011;45534;52.690;6.268;2023-07-09T15:36:34;8.68;;;5.95;;
59659;SDS011;45534;52.690;6.268;2023-07-09T15:39:00;7.45;;;4.82;;
59659;SDS011;45534;52.690;6.268;2023-07-09T15:41:26;9.82;;;6.75;;
59659;SDS011;45534;52.690;6.268;2023-07-09T15:43:52;8.88;;;6.28;;
59659;SDS011;45534;52.690;6.268;2023-07-09T15:46:19;8.15;;;5.65;;
59659;SDS011;45534;52.690;6.268;2023-07-09T15:48:46;16.42;;;6.60;;
59659;SDS011;45534;52.690;6.268;2023-07-09T15:51:12;10.25;;;7.63;;
59659;SDS011;45534;52.690;6.268;2023-07-09T15:53:38;6.78;;;4.60;;
59659;SDS011;45534;52.690;6.268;2023-07-09T15:56:26;10.85;;;6.00;;
59659;SDS011;45534;52.690;6.268;2023-07-09T15:58:53;2.65;;;2.45;;
59659;SDS011;45534;52.690;6.268;2023-07-09T16:01:21;10.30;;;6.03;;
59659;SDS011;45534;52.690;6.268;2023-07-09T16:03:50;3.58;;;3.05;;
59659;SDS011;45534;52.690;6.268;2023-07-09T16:06:19;5.45;;;3.92;;
59659;SDS011;45534;52.690;6.268;2023-07-09T16:08:45;5.55;;;3.58;;
59659;SDS011;45534;52.690;6.268;2023-07-09T16:13:39;7.10;;;5.45;;
59659;SDS011;45534;52.690;6.268;2023-07-09T16:16:06;12.30;;;6.65;;
59659;SDS011;45534;52.690;6.268;2023-07-09T16:18:37;10.93;;;6.63;;
59659;SDS011;45534;52.690;6.268;2023-07-09T16:21:03;10.40;;;6.18;;
59659;SDS011;45534;52.690;6.268;2023-07-09T16:23:29;23.15;;;10.20;;
59659;SDS011;45534;52.690;6.268;2023-07-09T16:25:54;8.77;;;5.25;;
59659;SDS011;45534;52.690;6.268;2023-07-09T16:28:20;6.10;;;4.70;;
59659;SDS011;45534;52.690;6.268;2023-07-09T16:30:46;5.07;;;3.70;;
59659;SDS011;45534;52.690;6.268;2023-07-09T16:33:15;5.50;;;4.35;;
59659;SDS011;45534;52.690;6.268;2023-07-09T16:35:41;3.65;;;3.33;;
59659;SDS011;45534;52.690;6.268;2023-07-09T16:38:09;6.57;;;4.38;;
59659;SDS011;45534;52.690;6.268;2023-07-09T16:40:36;6.85;;;3.90;;
59659;SDS011;45534;52.690;6.268;2023-07-09T16:43:05;5.03;;;2.97;;
59659;SDS011;45534;52.690;6.268;2023-07-09T16:45:38;2.78;;;2.38;;
59659;SDS011;45534;52.690;6.268;2023-07-09T16:48:08;7.60;;;5.20;;
59659;SDS011;45534;52.690;6.268;2023-07-09T16:50:42;4.80;;;3.47;;
59659;SDS011;45534;52.690;6.268;2023-07-09T16:53:15;7.93;;;5.13;;
59659;SDS011;45534;52.690;6.268;2023-07-09T16:55:42;4.90;;;3.15;;
59659;SDS011;45534;52.690;6.268;2023-07-09T17:00:55;2.95;;;2.67;;
59659;SDS011;45534;52.690;6.268;2023-07-09T17:03:21;4.30;;;3.33;;
59659;SDS011;45534;52.690;6.268;2023-07-09T17:05:46;4.18;;;3.80;;
59659;SDS011;45534;52.690;6.268;2023-07-09T17:08:12;4.53;;;3.50;;
59659;SDS011;45534;52.690;6.268;2023-07-09T17:10:38;10.32;;;5.93;;
59659;SDS011;45534;52.690;6.268;2023-07-09T17:13:05;7.57;;;3.47;;
59659;SDS011;45534;52.690;6.268;2023-07-09T17:15:38;6.88;;;4.03;;
59659;SDS011;45534;52.690;6.268;2023-07-09T17:18:17;5.32;;;3.92;;
59659;SDS011;45534;52.690;6.268;2023-07-09T17:20:45;8.30;;;5.70;;
59659;SDS011;45534;52.690;6.268;2023-07-09T17:23:12;13.05;;;4.72;;
59659;SDS011;45534;52.690;6.268;2023-07-09T17:25:38;10.45;;;5.80;;
59659;SDS011;45534;52.690;6.268;2023-07-09T17:30:39;9.68;;;5.50;;
59659;SDS011;45534;52.690;6.268;2023-07-09T17:33:07;10.05;;;5.93;;
59659;SDS011;45534;52.690;6.268;2023-07-09T17:35:34;11.82;;;4.53;;
59659;SDS011;45534;52.690;6.268;2023-07-09T17:38:00;4.72;;;3.22;;
59659;SDS011;45534;52.690;6.268;2023-07-09T17:40:30;6.95;;;2.90;;
59659;SDS011;45534;52.690;6.268;2023-07-09T17:42:56;7.75;;;4.82;;
59659;SDS011;45534;52.690;6.268;2023-07-09T17:45:22;7.78;;;3.72;;
59659;SDS011;45534;52.690;6.268;2023-07-09T17:47:49;7.90;;;4.30;;
59659;SDS011;45534;52.690;6.268;2023-07-09T17:50:19;12.43;;;6.82;;
59659;SDS011;45534;52.690;6.268;2023-07-09T17:52:50;6.07;;;3.67;;
59659;SDS011;45534;52.690;6.268;2023-07-09T17:55:17;5.55;;;4.95;;
59659;SDS011;45534;52.690;6.268;2023-07-09T17:57:44;9.43;;;6.10;;
59659;SDS011;45534;52.690;6.268;2023-07-09T18:00:18;4.30;;;3.08;;
59659;SDS011;45534;52.690;6.268;2023-07-09T18:02:48;10.43;;;6.38;;
59659;SDS011;45534;52.690;6.268;2023-07-09T18:05:28;10.02;;;6.72;;
59659;SDS011;45534;52.690;6.268;2023-07-09T18:07:55;9.07;;;5.82;;
59659;SDS011;45534;52.690;6.268;2023-07-09T18:10:22;7.82;;;6.25;;
59659;SDS011;45534;52.690;6.268;2023-07-09T18:12:49;9.23;;;5.93;;
59659;SDS011;45534;52.690;6.268;2023-07-09T18:15:22;16.02;;;10.73;;
59659;SDS011;45534;52.690;6.268;2023-07-09T18:17:50;11.85;;;9.02;;
59659;SDS011;45534;52.690;6.268;2023-07-09T18:20:19;9.70;;;6.57;;
59659;SDS011;45534;52.690;6.268;2023-07-09T18:22:47;4.32;;;2.67;;
59659;SDS011;45534;52.690;6.268;2023-07-09T18:25:12;7.57;;;4.18;;
59659;SDS011;45534;52.690;6.268;2023-07-09T18:27:40;2.67;;;2.30;;
59659;SDS011;45534;52.690;6.268;2023-07-09T18:30:16;1.85;;;1.75;;
59659;SDS011;45534;52.690;6.268;2023-07-09T18:32:44;15.85;;;7.90;;
59659;SDS011;45534;52.690;6.268;2023-07-09T18:35:16;11.20;;;6.18;;
59659;SDS011;45534;52.690;6.268;2023-07-09T18:37:46;2.50;;;2.33;;
59659;SDS011;45534;52.690;6.268;2023-07-09T18:40:17;3.25;;;2.83;;
59659;SDS011;45534;52.690;6.268;2023-07-09T18:42:43;4.97;;;3.30;;
59659;SDS011;45534;52.690;6.268;2023-07-09T18:45:14;4.07;;;3.67;;
59659;SDS011;45534;52.690;6.268;2023-07-09T18:47:41;11.70;;;6.38;;
59659;SDS011;45534;52.690;6.268;2023-07-09T18:50:12;9.48;;;6.55;;
59659;SDS011;45534;52.690;6.268;2023-07-09T18:52:43;13.73;;;7.20;;
59659;SDS011;45534;52.690;6.268;2023-07-09T18:55:14;3.58;;;3.25;;
59659;SDS011;45534;52.690;6.268;2023-07-09T18:57:44;6.28;;;2.95;;
59659;SDS011;45534;52.690;6.268;2023-07-09T19:00:11;8.60;;;4.22;;
59659;SDS011;45534;52.690;6.268;2023-07-09T19:02:39;2.72;;;2.55;;
59659;SDS011;45534;52.690;6.268;2023-07-09T19:05:11;12.93;;;6.18;;
59659;SDS011;45534;52.690;6.268;2023-07-09T19:07:40;2.78;;;2.53;;
59659;SDS011;45534;52.690;6.268;2023-07-09T19:10:08;10.70;;;6.07;;
59659;SDS011;45534;52.690;6.268;2023-07-09T19:12:38;2.78;;;2.13;;
59659;SDS011;45534;52.690;6.268;2023-07-09T19:15:04;5.63;;;2.65;;
59659;SDS011;45534;52.690;6.268;2023-07-09T19:17:30;2.92;;;2.22;;
59659;SDS011;45534;52.690;6.268;2023-07-09T19:19:55;9.32;;;4.65;;
59659;SDS011;45534;52.690;6.268;2023-07-09T19:22:21;6.65;;;3.65;;
59659;SDS011;45534;52.690;6.268;2023-07-09T19:24:47;4.88;;;3.05;;
59659;SDS011;45534;52.690;6.268;2023-07-09T19:27:12;8.00;;;3.03;;
59659;SDS011;45534;52.690;6.268;2023-07-09T19:29:38;9.38;;;5.53;;
59659;SDS011;45534;52.690;6.268;2023-07-09T19:32:08;3.20;;;2.85;;
59659;SDS011;45534;52.690;6.268;2023-07-09T19:34:40;9.23;;;8.32;;
59659;SDS011;45534;52.690;6.268;2023-07-09T19:37:16;4.88;;;2.08;;
59659;SDS011;45534;52.690;6.268;2023-07-09T19:39:49;10.10;;;3.55;;
59659;SDS011;45534;52.690;6.268;2023-07-09T19:42:19;6.28;;;3.83;;
59659;SDS011;45534;52.690;6.268;2023-07-09T19:44:48;6.13;;;3.30;;
59659;SDS011;45534;52.690;6.268;2023-07-09T19:47:22;4.57;;;3.42;;
59659;SDS011;45534;52.690;6.268;2023-07-09T19:49:50;1.92;;;1.80;;
59659;SDS011;45534;52.690;6.268;2023-07-09T19:52:18;5.47;;;3.58;;
59659;SDS011;45534;52.690;6.268;2023-07-09T19:54:43;4.15;;;3.13;;
59659;SDS011;45534;52.690;6.268;2023-07-09T19:57:13;4.35;;;3.35;;
59659;SDS011;45534;52.690;6.268;2023-07-09T19:59:39;2.53;;;2.33;;
59659;SDS011;45534;52.690;6.268;2023-07-09T20:02:19;3.47;;;3.15;;
59659;SDS011;45534;52.690;6.268;2023-07-09T20:04:46;3.70;;;3.35;;
59659;SDS011;45534;52.690;6.268;2023-07-09T20:07:12;5.88;;;4.07;;
59659;SDS011;45534;52.690;6.268;2023-07-09T20:09:38;13.15;;;8.07;;
59659;SDS011;45534;52.690;6.268;2023-07-09T20:12:09;3.85;;;2.92;;
59659;SDS011;45534;52.690;6.268;2023-07-09T20:14:43;10.43;;;3.70;;
59659;SDS011;45534;52.690;6.268;2023-07-09T20:17:14;10.57;;;4.68;;
59659;SDS011;45534;52.690;6.268;2023-07-09T20:19:40;11.80;;;5.15;;
59659;SDS011;45534;52.690;6.268;2023-07-09T20:22:09;7.18;;;5.25;;
59659;SDS011;45534;52.690;6.268;2023-07-09T20:24:40;9.90;;;4.32;;
59659;SDS011;45534;52.690;6.268;2023-07-09T20:27:14;6.47;;;4.75;;
59659;SDS011;45534;52.690;6.268;2023-07-09T20:29:41;6.07;;;4.00;;
59659;SDS011;45534;52.690;6.268;2023-07-09T20:32:17;8.05;;;5.32;;
59659;SDS011;45534;52.690;6.268;2023-07-09T20:34:45;8.55;;;3.70;;
59659;SDS011;45534;52.690;6.268;2023-07-09T20:37:15;7.88;;;5.22;;
59659;SDS011;45534;52.690;6.268;2023-07-09T20:39:41;5.90;;;4.30;;
59659;SDS011;45534;52.690;6.268;2023-07-09T20:42:08;5.35;;;4.30;;
59659;SDS011;45534;52.690;6.268;2023-07-09T20:44:40;8.35;;;6.32;;
59659;SDS011;45534;52.690;6.268;2023-07-09T20:47:16;6.15;;;4.57;;
59659;SDS011;45534;52.690;6.268;2023-07-09T20:49:43;9.68;;;5.85;;
59659;SDS011;45534;52.690;6.268;2023-07-09T20:52:10;6.18;;;4.18;;
59659;SDS011;45534;52.690;6.268;2023-07-09T20:54:36;10.55;;;4.93;;
59659;SDS011;45534;52.690;6.268;2023-07-09T20:57:02;11.07;;;6.00;;
59659;SDS011;45534;52.690;6.268;2023-07-09T20:59:34;12.55;;;5.72;;
59659;SDS011;45534;52.690;6.268;2023-07-09T21:02:00;8.95;;;5.70;;
59659;SDS011;45534;52.690;6.268;2023-07-09T21:04:26;9.40;;;4.65;;
59659;SDS011;45534;52.690;6.268;2023-07-09T21:06:51;7.78;;;5.60;;
59659;SDS011;45534;52.690;6.268;2023-07-09T21:09:27;9.43;;;6.40;;
59659;SDS011;45534;52.690;6.268;2023-07-09T21:11:56;10.95;;;6.10;;
59659;SDS011;45534;52.690;6.268;2023-07-09T21:14:22;6.68;;;4.32;;
59659;SDS011;45534;52.690;6.268;2023-07-09T21:16:49;11.93;;;6.50;;
59659;SDS011;45534;52.690;6.268;2023-07-09T21:19:22;8.93;;;6.30;;
59659;SDS011;45534;52.690;6.268;2023-07-09T21:21:48;10.00;;;6.00;;
59659;SDS011;45534;52.690;6.268;2023-07-09T21:24:37;18.85;;;9.55;;
59659;SDS011;45534;52.690;6.268;2023-07-09T21:27:02;14.85;;;10.55;;
59659;SDS011;45534;52.690;6.268;2023-07-09T21:29:28;15.25;;;12.43;;
59659;SDS011;45534;52.690;6.268;2023-07-09T21:31:56;14.00;;;10.32;;
59659;SDS011;45534;52.690;6.268;2023-07-09T21:34:24;13.85;;;10.50;;
59659;SDS011;45534;52.690;6.268;2023-07-09T21:36:52;8.52;;;6.18;;
59659;SDS011;45534;52.690;6.268;2023-07-09T21:39:19;10.02;;;6.72;;
59659;SDS011;45534;52.690;6.268;2023-07-09T21:41:50;8.10;;;6.15;;
59659;SDS011;45534;52.690;6.268;2023-07-09T21:44:21;10.80;;;6.13;;
59659;SDS011;45534;52.690;6.268;2023-07-09T21:46:49;6.80;;;5.15;;
59659;SDS011;45534;52.690;6.268;2023-07-09T21:49:19;13.82;;;6.32;;
59659;SDS011;45534;52.690;6.268;2023-07-09T21:51:47;14.82;;;9.77;;
59659;SDS011;45534;52.690;6.268;2023-07-09T21:54:32;8.80;;;6.00;;
59659;SDS011;45534;52.690;6.268;2023-07-09T21:57:00;17.00;;;7.05;;
59659;SDS011;45534;52.690;6.268;2023-07-09T21:59:27;10.88;;;5.97;;
59659;SDS011;45534;52.690;6.268;2023-07-09T22:01:56;12.15;;;6.57;;
59659;SDS011;45534;52.690;6.268;2023-07-09T22:06:58;9.13;;;6.07;;
59659;SDS011;45534;52.690;6.268;2023-07-09T22:09:26;10.63;;;5.70;;
59659;SDS011;45534;52.690;6.268;2023-07-09T22:11:53;15.50;;;9.00;;
59659;SDS011;45534;52.690;6.268;2023-07-09T22:14:21;13.35;;;6.22;;
59659;SDS011;45534;52.690;6.268;2023-07-09T22:16:48;9.93;;;5.60;;
59659;SDS011;45534;52.690;6.268;2023-07-09T22:19:18;22.95;;;12.65;;
59659;SDS011;45534;52.690;6.268;2023-07-09T22:21:46;16.48;;;8.23;;
59659;SDS011;45534;52.690;6.268;2023-07-09T22:24:14;15.05;;;6.53;;
59659;SDS011;45534;52.690;6.268;2023-07-09T22:26:45;12.70;;;7.07;;
59659;SDS011;45534;52.690;6.268;2023-07-09T22:29:11;9.98;;;6.68;;
59659;SDS011;45534;52.690;6.268;2023-07-09T22:31:38;11.70;;;7.68;;
59659;SDS011;45534;52.690;6.268;2023-07-09T22:34:14;14.43;;;6.13;;
59659;SDS011;45534;52.690;6.268;2023-07-09T22:36:45;20.73;;;9.63;;
59659;SDS011;45534;52.690;6.268;2023-07-09T22:39:12;11.70;;;7.53;;
59659;SDS011;45534;52.690;6.268;2023-07-09T22:41:38;17.02;;;9.18;;
59659;SDS011;45534;52.690;6.268;2023-07-09T22:44:06;23.60;;;15.77;;
59659;SDS011;45534;52.690;6.268;2023-07-09T22:46:31;22.10;;;16.33;;
59659;SDS011;45534;52.690;6.268;2023-07-09T22:48:57;19.45;;;15.52;;
59659;SDS011;45534;52.690;6.268;2023-07-09T22:51:23;22.33;;;16.17;;
59659;SDS011;45534;52.690;6.268;2023-07-09T22:53:48;16.13;;;9.50;;
59659;SDS011;45534;52.690;6.268;2023-07-09T22:56:14;15.90;;;8.27;;
59659;SDS011;45534;52.690;6.268;2023-07-09T22:58:40;13.32;;;6.20;;
59659;SDS011;45534;52.690;6.268;2023-07-09T23:01:11;13.43;;;7.60;;
59659;SDS011;45534;52.690;6.268;2023-07-09T23:03:43;14.30;;;7.57;;
59659;SDS011;45534;52.690;6.268;2023-07-09T23:06:11;16.13;;;10.05;;
59659;SDS011;45534;52.690;6.268;2023-07-09T23:08:39;22.90;;;9.93;;
59659;SDS011;45534;52.690;6.268;2023-07-09T23:11:08;9.13;;;6.25;;
59659;SDS011;45534;52.690;6.268;2023-07-09T23:13:43;13.75;;;8.60;;
59659;SDS011;45534;52.690;6.268;2023-07-09T23:16:16;7.85;;;5.57;;
59659;SDS011;45534;52.690;6.268;2023-07-09T23:18:44;11.48;;;8.07;;
59659;SDS011;45534;52.690;6.268;2023-07-09T23:21:11;16.95;;;9.43;;
59659;SDS011;45534;52.690;6.268;2023-07-09T23:23:38;12.10;;;7.75;;
59659;SDS011;45534;52.690;6.268;2023-07-09T23:26:03;12.50;;;8.65;;
59659;SDS011;45534;52.690;6.268;2023-07-09T23:28:29;13.00;;;7.05;;
59659;SDS011;45534;52.690;6.268;2023-07-09T23:30:55;22.27;;;12.55;;
59659;SDS011;45534;52.690;6.268;2023-07-09T23:33:26;12.35;;;7.93;;
59659;SDS011;45534;52.690;6.268;2023-07-09T23:35:54;14.50;;;8.73;;
59659;SDS011;45534;52.690;6.268;2023-07-09T23:38:21;12.60;;;7.50;;
59659;SDS011;45534;52.690;6.268;2023-07-09T23:40:55;14.38;;;11.27;;
59659;SDS011;45534;52.690;6.268;2023-07-09T23:43:23;16.05;;;10.95;;
59659;SDS011;45534;52.690;6.268;2023-07-09T23:45:50;18.10;;;10.93;;
59659;SDS011;45534;52.690;6.268;2023-07-09T23:48:25;13.85;;;8.98;;
59659;SDS011;45534;52.690;6.268;2023-07-09T23:50:54;20.60;;;11.10;;
59659;SDS011;45534;52.690;6.268;2023-07-09T23:53:27;14.38;;;8.93;;
59659;SDS011;45534;52.690;6.268;2023-07-09T23:55:55;14.15;;;11.35;;
59659;SDS011;45534;52.690;6.268;2023-07-09T23:58:27;26.75;;;21.83;;
